sensor_id;sensor_type;location;lat;lon;timestamp;pressure;altitude;pressure_sealevel;temperature;humidity
3697;BME280;60662;48.810;8.872;2022-07-23T06:33:00;96730.34;;;23.71;49.93
3697;BME280;60662;48.810;8.872;2022-07-23T06:34:02;96728.44;;;23.81;49.77
3697;BME280;60662;48.810;8.872;2022-07-23T06:35:04;96729.28;;;23.81;49.65
3697;BME280;60662;48.810;8.872;2022-07-23T06:36:06;96727.75;;;23.79;49.61
3697;BME280;60662;48.810;8.872;2022-07-23T06:37:08;96735.53;;;23.62;50.52
3697;BME280;60662;48.810;8.872;2022-07-23T07:19:07;96737.53;;;21.04;69.83
3697;BME280;60662;48.810;8.872;2022-07-23T07:20:09;96731.69;;;21.10;69.71
3697;BME280;60662;48.810;8.872;2022-07-23T07:21:14;96725.72;;;21.49;69.19
3697;BME280;60662;48.810;8.872;2022-07-23T07:22:16;96738.69;;;21.42;67.57
3697;BME280;60662;48.810;8.872;2022-07-23T07:23:17;96726.66;;;21.89;66.86
3697;BME280;60662;48.810;8.872;2022-07-23T07:24:18;96734.13;;;22.14;65.01
3697;BME280;60662;48.810;8.872;2022-07-23T07:25:20;96740.97;;;22.27;64.75
3697;BME280;60662;48.810;8.872;2022-07-23T07:26:22;96747.84;;;22.20;62.14
3697;BME280;60662;48.810;8.872;2022-07-23T07:27:23;96744.94;;;22.42;62.78
3697;BME280;60662;48.810;8.872;2022-07-23T07:28:25;96746.06;;;22.40;64.43
3697;BME280;60662;48.810;8.872;2022-07-23T07:29:26;96728.25;;;22.11;64.74
3697;BME280;60662;48.810;8.872;2022-07-23T07:30:29;96748.03;;;22.38;63.97
3697;BME280;60662;48.810;8.872;2022-07-23T07:31:34;96742.97;;;22.44;63.17
3697;BME280;60662;48.810;8.872;2022-07-23T07:32:36;96748.97;;;22.76;61.70
3697;BME280;60662;48.810;8.872;2022-07-23T07:33:58;96753.75;;;22.62;62.00
3697;BME280;60662;48.810;8.872;2022-07-23T07:34:59;96753.03;;;22.80;61.77
3697;BME280;60662;48.810;8.872;2022-07-23T07:36:01;96766.06;;;22.83;61.36
3697;BME280;60662;48.810;8.872;2022-07-23T07:37:02;96765.81;;;22.57;60.16
3697;BME280;60662;48.810;8.872;2022-07-23T07:58:45;96768.41;;;22.08;61.62
3697;BME280;60662;48.810;8.872;2022-07-23T07:59:47;96756.09;;;22.26;62.40
3697;BME280;60662;48.810;8.872;2022-07-23T08:00:55;96767.47;;;22.67;61.19
3697;BME280;60662;48.810;8.872;2022-07-23T08:01:56;96772.38;;;22.72;60.89
3697;BME280;60662;48.810;8.872;2022-07-23T08:02:58;96771.09;;;22.76;60.15
3697;BME280;60662;48.810;8.872;2022-07-23T08:04:00;96779.50;;;22.91;58.42
3697;BME280;60662;48.810;8.872;2022-07-23T08:05:02;96778.09;;;22.97;57.92
3697;BME280;60662;48.810;8.872;2022-07-23T08:06:04;96777.25;;;22.96;57.95
3697;BME280;60662;48.810;8.872;2022-07-23T08:07:05;96773.31;;;23.20;58.48
3697;BME280;60662;48.810;8.872;2022-07-23T08:08:07;96776.41;;;23.15;55.52
3697;BME280;60662;48.810;8.872;2022-07-23T08:09:10;96779.19;;;23.24;56.25
3697;BME280;60662;48.810;8.872;2022-07-23T08:10:12;96776.09;;;23.56;54.98
3697;BME280;60662;48.810;8.872;2022-07-23T08:11:13;96772.59;;;23.66;53.95
3697;BME280;60662;48.810;8.872;2022-07-23T08:12:15;96779.56;;;23.67;53.27
3697;BME280;60662;48.810;8.872;2022-07-23T08:13:16;96771.38;;;23.50;54.25
3697;BME280;60662;48.810;8.872;2022-07-23T08:14:18;96775.13;;;23.57;54.14
3697;BME280;60662;48.810;8.872;2022-07-23T08:15:21;96771.63;;;23.57;54.22
3697;BME280;60662;48.810;8.872;2022-07-23T08:16:22;96772.91;;;23.53;53.88
3697;BME280;60662;48.810;8.872;2022-07-23T08:17:24;96772.47;;;23.10;54.90
3697;BME280;60662;48.810;8.872;2022-07-23T08:18:25;96774.03;;;22.93;55.38
3697;BME280;60662;48.810;8.872;2022-07-23T08:19:27;96767.81;;;23.31;54.06
3697;BME280;60662;48.810;8.872;2022-07-23T08:20:28;96778.34;;;23.61;53.65
3697;BME280;60662;48.810;8.872;2022-07-23T08:21:30;96772.47;;;23.57;53.20
3697;BME280;60662;48.810;8.872;2022-07-23T08:22:45;96774.34;;;23.75;53.42
3697;BME280;60662;48.810;8.872;2022-07-23T08:23:47;96771.56;;;24.04;52.69
3697;BME280;60662;48.810;8.872;2022-07-23T08:24:48;96779.88;;;24.19;52.38
3697;BME280;60662;48.810;8.872;2022-07-23T08:25:49;96777.75;;;24.23;52.48
3697;BME280;60662;48.810;8.872;2022-07-23T08:26:51;96781.56;;;24.38;52.57
3697;BME280;60662;48.810;8.872;2022-07-23T08:27:53;96783.84;;;24.51;52.26
3697;BME280;60662;48.810;8.872;2022-07-23T08:28:54;96794.06;;;24.38;52.29
3697;BME280;60662;48.810;8.872;2022-07-23T08:29:56;96789.19;;;24.33;53.10
3697;BME280;60662;48.810;8.872;2022-07-23T08:30:57;96795.28;;;24.25;53.23
3697;BME280;60662;48.810;8.872;2022-07-23T08:31:59;96792.19;;;24.02;53.56
3697;BME280;60662;48.810;8.872;2022-07-23T08:33:20;96787.34;;;24.16;53.02
3697;BME280;60662;48.810;8.872;2022-07-23T08:34:34;96795.13;;;24.45;52.46
3697;BME280;60662;48.810;8.872;2022-07-23T08:35:40;96788.81;;;24.82;51.90
3697;BME280;60662;48.810;8.872;2022-07-23T08:36:42;96788.06;;;25.16;51.11
3697;BME280;60662;48.810;8.872;2022-07-23T08:37:44;96791.19;;;24.85;50.84
3697;BME280;60662;48.810;8.872;2022-07-23T08:38:45;96789.28;;;24.59;51.13
3697;BME280;60662;48.810;8.872;2022-07-23T08:39:47;96789.13;;;24.61;51.69
3697;BME280;60662;48.810;8.872;2022-07-23T08:40:53;96779.16;;;25.07;50.39
3697;BME280;60662;48.810;8.872;2022-07-23T08:41:55;96787.53;;;24.86;50.42
3697;BME280;60662;48.810;8.872;2022-07-23T08:42:57;96760.03;;;25.20;49.17
3697;BME280;60662;48.810;8.872;2022-07-23T08:43:59;96775.44;;;25.53;48.38
3697;BME280;60662;48.810;8.872;2022-07-23T08:45:03;96787.56;;;25.73;48.40
3697;BME280;60662;48.810;8.872;2022-07-23T08:46:04;96783.97;;;25.91;47.91
3697;BME280;60662;48.810;8.872;2022-07-23T08:47:06;96778.59;;;25.48;48.81
3697;BME280;60662;48.810;8.872;2022-07-23T08:49:17;96767.09;;;25.56;48.61
3697;BME280;60662;48.810;8.872;2022-07-23T08:50:20;96779.75;;;25.46;48.57
3697;BME280;60662;48.810;8.872;2022-07-23T08:51:25;96776.06;;;25.20;48.08
3697;BME280;60662;48.810;8.872;2022-07-23T08:52:30;96771.66;;;25.11;47.92
3697;BME280;60662;48.810;8.872;2022-07-23T08:53:33;96773.56;;;24.92;48.75
3697;BME280;60662;48.810;8.872;2022-07-23T08:54:37;96779.47;;;25.04;48.62
3697;BME280;60662;48.810;8.872;2022-07-23T08:55:39;96776.78;;;25.49;47.26
3697;BME280;60662;48.810;8.872;2022-07-23T08:56:41;96789.44;;;25.81;46.40
3697;BME280;60662;48.810;8.872;2022-07-23T08:57:43;96781.41;;;25.73;45.75
3697;BME280;60662;48.810;8.872;2022-07-23T08:58:45;96786.34;;;25.59;44.92
3697;BME280;60662;48.810;8.872;2022-07-23T08:59:46;96780.38;;;25.39;44.84
3697;BME280;60662;48.810;8.872;2022-07-23T09:00:48;96785.06;;;25.72;44.71
3697;BME280;60662;48.810;8.872;2022-07-23T09:01:50;96788.28;;;25.49;45.91
3697;BME280;60662;48.810;8.872;2022-07-23T09:02:52;96782.47;;;25.54;46.08
3697;BME280;60662;48.810;8.872;2022-07-23T09:03:54;96784.97;;;25.29;45.47
3697;BME280;60662;48.810;8.872;2022-07-23T09:04:55;96779.66;;;25.03;46.35
3697;BME280;60662;48.810;8.872;2022-07-23T09:05:58;96778.91;;;25.19;46.34
3697;BME280;60662;48.810;8.872;2022-07-23T09:07:01;96778.94;;;25.45;45.57
3697;BME280;60662;48.810;8.872;2022-07-23T09:08:18;96782.84;;;25.59;44.85
3697;BME280;60662;48.810;8.872;2022-07-23T09:09:21;96781.25;;;24.96;45.70
3697;BME280;60662;48.810;8.872;2022-07-23T09:10:22;96787.81;;;25.27;45.28
3697;BME280;60662;48.810;8.872;2022-07-23T09:11:27;96784.63;;;25.50;44.00
3697;BME280;60662;48.810;8.872;2022-07-23T09:12:29;96787.94;;;25.79;43.57
3697;BME280;60662;48.810;8.872;2022-07-23T09:14:46;96785.59;;;25.75;43.24
3697;BME280;60662;48.810;8.872;2022-07-23T09:15:51;96785.16;;;26.56;42.56
3697;BME280;60662;48.810;8.872;2022-07-23T09:16:54;96782.69;;;26.03;42.71
3697;BME280;60662;48.810;8.872;2022-07-23T09:17:56;96776.25;;;25.45;43.74
3697;BME280;60662;48.810;8.872;2022-07-23T09:19:02;96772.47;;;25.99;43.34
3697;BME280;60662;48.810;8.872;2022-07-23T09:20:14;96777.47;;;26.69;42.69
3697;BME280;60662;48.810;8.872;2022-07-23T09:22:34;96777.28;;;26.38;42.56
3697;BME280;60662;48.810;8.872;2022-07-23T09:25:14;96768.41;;;26.46;42.14
3697;BME280;60662;48.810;8.872;2022-07-23T09:26:24;96773.59;;;27.30;41.32
3697;BME280;60662;48.810;8.872;2022-07-23T09:29:07;96778.28;;;27.28;41.16
3697;BME280;60662;48.810;8.872;2022-07-23T09:30:09;96777.38;;;27.60;40.31
3697;BME280;60662;48.810;8.872;2022-07-23T09:31:10;96782.16;;;27.17;40.96
3697;BME280;60662;48.810;8.872;2022-07-23T09:32:13;96774.38;;;27.55;41.21
3697;BME280;60662;48.810;8.872;2022-07-23T09:33:15;96780.91;;;27.61;39.69
3697;BME280;60662;48.810;8.872;2022-07-23T09:34:19;96788.84;;;27.94;39.54
3697;BME280;60662;48.810;8.872;2022-07-23T09:36:03;96782.63;;;28.33;37.55
3697;BME280;60662;48.810;8.872;2022-07-23T09:37:14;96783.09;;;28.37;37.02
3697;BME280;60662;48.810;8.872;2022-07-23T09:38:17;96768.16;;;28.34;37.62
3697;BME280;60662;48.810;8.872;2022-07-23T09:39:26;96783.78;;;28.85;37.70
3697;BME280;60662;48.810;8.872;2022-07-23T09:40:28;96776.97;;;28.74;38.21
3697;BME280;60662;48.810;8.872;2022-07-23T09:41:42;96788.50;;;28.83;38.48
3697;BME280;60662;48.810;8.872;2022-07-23T09:42:54;96784.09;;;29.28;37.31
3697;BME280;60662;48.810;8.872;2022-07-23T09:43:56;96786.16;;;29.56;36.38
3697;BME280;60662;48.810;8.872;2022-07-23T09:44:58;96783.66;;;29.40;36.34
3697;BME280;60662;48.810;8.872;2022-07-23T09:46:24;96785.94;;;29.28;35.95
3697;BME280;60662;48.810;8.872;2022-07-23T09:47:30;96779.84;;;29.64;34.77
3697;BME280;60662;48.810;8.872;2022-07-23T09:48:31;96775.09;;;29.66;35.64
3697;BME280;60662;48.810;8.872;2022-07-23T09:49:33;96771.13;;;29.47;36.12
3697;BME280;60662;48.810;8.872;2022-07-23T09:50:35;96778.72;;;29.58;36.71
3697;BME280;60662;48.810;8.872;2022-07-23T09:51:57;96785.66;;;29.83;35.74
3697;BME280;60662;48.810;8.872;2022-07-23T09:52:59;96786.22;;;29.48;35.91
3697;BME280;60662;48.810;8.872;2022-07-23T09:54:00;96780.59;;;29.88;35.82
3697;BME280;60662;48.810;8.872;2022-07-23T09:55:04;96785.13;;;29.72;36.22
3697;BME280;60662;48.810;8.872;2022-07-23T09:56:07;96786.88;;;29.80;35.66
3697;BME280;60662;48.810;8.872;2022-07-23T09:57:11;96779.56;;;29.59;35.41
3697;BME280;60662;48.810;8.872;2022-07-23T09:58:16;96789.78;;;29.10;35.86
3697;BME280;60662;48.810;8.872;2022-07-23T09:59:23;96782.94;;;27.98;37.97
3697;BME280;60662;48.810;8.872;2022-07-23T10:00:25;96793.34;;;27.93;38.85
3697;BME280;60662;48.810;8.872;2022-07-23T10:01:27;96790.22;;;27.90;38.68
3697;BME280;60662;48.810;8.872;2022-07-23T10:02:32;96789.38;;;28.52;38.44
3697;BME280;60662;48.810;8.872;2022-07-23T10:03:33;96797.47;;;28.75;37.19
3697;BME280;60662;48.810;8.872;2022-07-23T10:04:35;96782.94;;;28.61;37.21
3697;BME280;60662;48.810;8.872;2022-07-23T10:05:39;96791.56;;;28.80;37.35
3697;BME280;60662;48.810;8.872;2022-07-23T10:06:45;96788.63;;;28.66;37.50
3697;BME280;60662;48.810;8.872;2022-07-23T10:07:47;96797.53;;;28.90;37.08
3697;BME280;60662;48.810;8.872;2022-07-23T10:08:56;96786.78;;;29.28;37.25
3697;BME280;60662;48.810;8.872;2022-07-23T10:10:00;96794.78;;;29.52;36.50
3697;BME280;60662;48.810;8.872;2022-07-23T10:11:02;96792.53;;;29.02;36.97
3697;BME280;60662;48.810;8.872;2022-07-23T10:12:10;96788.31;;;28.61;37.13
3697;BME280;60662;48.810;8.872;2022-07-23T10:13:17;96793.94;;;28.98;37.26
3697;BME280;60662;48.810;8.872;2022-07-23T10:14:41;96796.75;;;28.81;37.60
3697;BME280;60662;48.810;8.872;2022-07-23T10:15:42;96783.50;;;29.18;37.52
3697;BME280;60662;48.810;8.872;2022-07-23T10:16:44;96783.91;;;29.75;37.24
3697;BME280;60662;48.810;8.872;2022-07-23T10:17:48;96788.09;;;29.77;36.91
3697;BME280;60662;48.810;8.872;2022-07-23T10:18:50;96790.88;;;29.84;36.72
3697;BME280;60662;48.810;8.872;2022-07-23T10:19:51;96788.31;;;29.23;37.56
3697;BME280;60662;48.810;8.872;2022-07-23T10:20:53;96787.81;;;29.87;36.71
3697;BME280;60662;48.810;8.872;2022-07-23T10:21:58;96784.28;;;29.87;36.12
3697;BME280;60662;48.810;8.872;2022-07-23T10:23:24;96790.59;;;29.49;36.73
3697;BME280;60662;48.810;8.872;2022-07-23T10:26:17;96784.13;;;29.05;36.02
3697;BME280;60662;48.810;8.872;2022-07-23T10:29:15;96782.22;;;28.91;36.91
3697;BME280;60662;48.810;8.872;2022-07-23T10:34:52;96776.13;;;29.95;33.51
3697;BME280;60662;48.810;8.872;2022-07-23T10:36:21;96779.41;;;29.90;33.61
3697;BME280;60662;48.810;8.872;2022-07-23T10:37:42;96782.91;;;29.91;34.40
3697;BME280;60662;48.810;8.872;2022-07-23T10:40:08;96782.09;;;29.90;34.23
3697;BME280;60662;48.810;8.872;2022-07-23T10:41:10;96778.00;;;30.31;34.22
3697;BME280;60662;48.810;8.872;2022-07-23T10:42:15;96782.59;;;30.52;34.45
3697;BME280;60662;48.810;8.872;2022-07-23T10:43:17;96779.78;;;30.60;33.92
3697;BME280;60662;48.810;8.872;2022-07-23T10:44:22;96782.56;;;30.95;33.27
3697;BME280;60662;48.810;8.872;2022-07-23T10:46:34;96790.50;;;30.54;33.94
3697;BME280;60662;48.810;8.872;2022-07-23T10:47:39;96783.91;;;30.78;33.57
3697;BME280;60662;48.810;8.872;2022-07-23T10:49:23;96782.84;;;30.79;33.21
3697;BME280;60662;48.810;8.872;2022-07-23T10:50:29;96782.97;;;31.42;32.24
3697;BME280;60662;48.810;8.872;2022-07-23T10:53:17;96786.75;;;30.18;33.62
3697;BME280;60662;48.810;8.872;2022-07-23T10:54:22;96786.22;;;30.44;33.74
3697;BME280;60662;48.810;8.872;2022-07-23T10:57:57;96788.97;;;29.93;34.66
3697;BME280;60662;48.810;8.872;2022-07-23T10:59:03;96793.47;;;30.44;33.03
3697;BME280;60662;48.810;8.872;2022-07-23T11:01:38;96787.88;;;30.24;32.48
3697;BME280;60662;48.810;8.872;2022-07-23T11:02:42;96781.72;;;29.93;32.68
3697;BME280;60662;48.810;8.872;2022-07-23T11:03:56;96782.78;;;29.39;34.19
3697;BME280;60662;48.810;8.872;2022-07-23T11:05:10;96780.34;;;29.14;34.43
3697;BME280;60662;48.810;8.872;2022-07-23T11:06:12;96777.34;;;29.62;34.09
3697;BME280;60662;48.810;8.872;2022-07-23T11:07:15;96788.94;;;29.78;34.48
3697;BME280;60662;48.810;8.872;2022-07-23T11:08:22;96781.81;;;30.22;33.47
3697;BME280;60662;48.810;8.872;2022-07-23T11:10:36;96775.09;;;29.66;33.32
3697;BME280;60662;48.810;8.872;2022-07-23T11:11:39;96773.53;;;29.72;33.74
3697;BME280;60662;48.810;8.872;2022-07-23T11:12:41;96787.22;;;30.22;33.48
3697;BME280;60662;48.810;8.872;2022-07-23T11:13:46;96776.53;;;29.92;33.99
3697;BME280;60662;48.810;8.872;2022-07-23T11:15:05;96782.28;;;30.84;32.95
3697;BME280;60662;48.810;8.872;2022-07-23T11:17:20;96781.63;;;30.60;32.66
3697;BME280;60662;48.810;8.872;2022-07-23T11:22:45;96782.53;;;31.10;31.66
3697;BME280;60662;48.810;8.872;2022-07-23T11:24:57;96777.50;;;31.29;32.10
3697;BME280;60662;48.810;8.872;2022-07-23T11:25:59;96780.31;;;31.49;31.93
3697;BME280;60662;48.810;8.872;2022-07-23T11:27:01;96776.94;;;31.12;32.39
3697;BME280;60662;48.810;8.872;2022-07-23T11:28:17;96776.50;;;31.37;32.08
3697;BME280;60662;48.810;8.872;2022-07-23T11:31:30;96769.19;;;31.31;31.54
3697;BME280;60662;48.810;8.872;2022-07-23T11:32:37;96777.16;;;31.74;31.51
3697;BME280;60662;48.810;8.872;2022-07-23T11:33:40;96776.38;;;31.80;31.41
3697;BME280;60662;48.810;8.872;2022-07-23T11:34:42;96773.81;;;31.37;32.37
3697;BME280;60662;48.810;8.872;2022-07-23T11:35:46;96770.09;;;31.38;31.88
3697;BME280;60662;48.810;8.872;2022-07-23T11:36:51;96770.75;;;31.82;31.77
3697;BME280;60662;48.810;8.872;2022-07-23T11:38:22;96774.81;;;31.64;31.60
3697;BME280;60662;48.810;8.872;2022-07-23T11:39:29;96769.06;;;31.39;32.07
3697;BME280;60662;48.810;8.872;2022-07-23T11:40:32;96773.88;;;31.15;32.41
3697;BME280;60662;48.810;8.872;2022-07-23T11:41:43;96779.47;;;31.14;32.30
3697;BME280;60662;48.810;8.872;2022-07-23T11:43:57;96774.72;;;31.51;32.16
3697;BME280;60662;48.810;8.872;2022-07-23T11:44:59;96777.94;;;32.10;31.42
3697;BME280;60662;48.810;8.872;2022-07-23T11:46:00;96774.16;;;31.27;32.69
3697;BME280;60662;48.810;8.872;2022-07-23T11:47:03;96775.41;;;31.59;31.25
3697;BME280;60662;48.810;8.872;2022-07-23T11:48:08;96769.34;;;31.57;31.94
3697;BME280;60662;48.810;8.872;2022-07-23T11:49:10;96767.31;;;31.31;31.62
3697;BME280;60662;48.810;8.872;2022-07-23T11:50:12;96772.34;;;31.34;31.34
3697;BME280;60662;48.810;8.872;2022-07-23T11:51:25;96770.66;;;31.33;31.64
3697;BME280;60662;48.810;8.872;2022-07-23T11:52:28;96773.69;;;31.87;31.28
3697;BME280;60662;48.810;8.872;2022-07-23T11:53:32;96767.13;;;32.03;31.24
3697;BME280;60662;48.810;8.872;2022-07-23T11:54:37;96766.97;;;31.41;32.99
3697;BME280;60662;48.810;8.872;2022-07-23T11:55:47;96770.00;;;31.59;33.13
3697;BME280;60662;48.810;8.872;2022-07-23T11:57:07;96768.88;;;31.47;32.88
3697;BME280;60662;48.810;8.872;2022-07-23T11:58:08;96771.94;;;32.07;32.27
3697;BME280;60662;48.810;8.872;2022-07-23T11:59:11;96763.28;;;32.26;31.92
3697;BME280;60662;48.810;8.872;2022-07-23T12:00:20;96762.16;;;32.06;32.55
3697;BME280;60662;48.810;8.872;2022-07-23T12:01:22;96762.53;;;31.62;32.83
3697;BME280;60662;48.810;8.872;2022-07-23T12:02:24;96764.09;;;31.78;32.86
3697;BME280;60662;48.810;8.872;2022-07-23T12:03:27;96756.44;;;32.30;32.15
3697;BME280;60662;48.810;8.872;2022-07-23T12:04:45;96761.88;;;32.43;31.39
3697;BME280;60662;48.810;8.872;2022-07-23T12:05:47;96764.78;;;32.48;31.26
3697;BME280;60662;48.810;8.872;2022-07-23T12:06:48;96763.19;;;32.05;31.45
3697;BME280;60662;48.810;8.872;2022-07-23T12:07:51;96765.66;;;32.07;30.96
3697;BME280;60662;48.810;8.872;2022-07-23T12:08:53;96765.69;;;32.14;30.92
3697;BME280;60662;48.810;8.872;2022-07-23T12:10:00;96765.41;;;32.37;30.85
3697;BME280;60662;48.810;8.872;2022-07-23T12:11:02;96766.31;;;32.16;30.26
3697;BME280;60662;48.810;8.872;2022-07-23T12:12:04;96765.19;;;31.55;31.46
3697;BME280;60662;48.810;8.872;2022-07-23T12:13:08;96768.94;;;31.96;31.19
3697;BME280;60662;48.810;8.872;2022-07-23T12:14:11;96768.84;;;31.75;31.42
3697;BME280;60662;48.810;8.872;2022-07-23T12:15:16;96767.94;;;32.03;30.44
3697;BME280;60662;48.810;8.872;2022-07-23T12:16:18;96765.53;;;31.73;31.43
3697;BME280;60662;48.810;8.872;2022-07-23T12:17:24;96769.94;;;31.81;31.17
3697;BME280;60662;48.810;8.872;2022-07-23T12:18:28;96763.06;;;32.27;30.92
3697;BME280;60662;48.810;8.872;2022-07-23T12:19:30;96771.00;;;31.87;31.55
3697;BME280;60662;48.810;8.872;2022-07-23T12:20:38;96769.28;;;31.79;31.00
3697;BME280;60662;48.810;8.872;2022-07-23T12:21:40;96759.91;;;30.83;31.44
3697;BME280;60662;48.810;8.872;2022-07-23T12:22:44;96764.34;;;30.98;31.44
3697;BME280;60662;48.810;8.872;2022-07-23T12:23:48;96763.72;;;30.95;31.39
3697;BME280;60662;48.810;8.872;2022-07-23T12:26:01;96754.13;;;31.43;29.98
3697;BME280;60662;48.810;8.872;2022-07-23T12:27:12;96758.13;;;31.82;29.64
3697;BME280;60662;48.810;8.872;2022-07-23T12:28:20;96762.97;;;32.07;29.73
3697;BME280;60662;48.810;8.872;2022-07-23T12:29:22;96755.44;;;31.96;29.52
3697;BME280;60662;48.810;8.872;2022-07-23T12:30:26;96755.25;;;31.97;29.42
3697;BME280;60662;48.810;8.872;2022-07-23T12:31:34;96758.44;;;31.37;30.42
3697;BME280;60662;48.810;8.872;2022-07-23T12:32:43;96749.59;;;31.50;29.68
3697;BME280;60662;48.810;8.872;2022-07-23T12:33:45;96753.94;;;31.80;29.51
3697;BME280;60662;48.810;8.872;2022-07-23T12:34:49;96755.25;;;31.27;29.60
3697;BME280;60662;48.810;8.872;2022-07-23T12:35:54;96746.06;;;31.50;30.05
3697;BME280;60662;48.810;8.872;2022-07-23T12:36:55;96755.97;;;31.42;30.53
3697;BME280;60662;48.810;8.872;2022-07-23T12:38:02;96754.13;;;31.78;30.73
3697;BME280;60662;48.810;8.872;2022-07-23T12:39:04;96756.38;;;31.39;31.48
3697;BME280;60662;48.810;8.872;2022-07-23T12:40:19;96754.41;;;31.20;31.57
3697;BME280;60662;48.810;8.872;2022-07-23T12:41:23;96757.09;;;31.20;32.16
3697;BME280;60662;48.810;8.872;2022-07-23T12:42:24;96753.16;;;31.57;31.47
3697;BME280;60662;48.810;8.872;2022-07-23T12:43:31;96755.41;;;31.47;31.28
3697;BME280;60662;48.810;8.872;2022-07-23T12:44:33;96763.53;;;31.19;31.39
3697;BME280;60662;48.810;8.872;2022-07-23T12:45:53;96750.44;;;31.51;31.67
3697;BME280;60662;48.810;8.872;2022-07-23T12:46:55;96754.88;;;31.30;31.58
3697;BME280;60662;48.810;8.872;2022-07-23T12:48:04;96758.31;;;31.46;31.41
3697;BME280;60662;48.810;8.872;2022-07-23T12:49:08;96749.25;;;31.60;31.29
3697;BME280;60662;48.810;8.872;2022-07-23T12:50:33;96762.47;;;30.98;32.39
3697;BME280;60662;48.810;8.872;2022-07-23T12:51:39;96758.00;;;31.05;31.68
3697;BME280;60662;48.810;8.872;2022-07-23T12:52:47;96737.50;;;30.83;32.11
3697;BME280;60662;48.810;8.872;2022-07-23T12:53:56;96751.38;;;30.58;31.63
3697;BME280;60662;48.810;8.872;2022-07-23T12:54:59;96753.09;;;30.66;32.03
3697;BME280;60662;48.810;8.872;2022-07-23T12:56:06;96747.16;;;30.99;31.06
3697;BME280;60662;48.810;8.872;2022-07-23T12:57:15;96765.34;;;31.12;30.44
3697;BME280;60662;48.810;8.872;2022-07-23T12:58:20;96757.38;;;31.03;31.13
3697;BME280;60662;48.810;8.872;2022-07-23T12:59:21;96763.59;;;31.32;31.45
3697;BME280;60662;48.810;8.872;2022-07-23T13:00:23;96753.34;;;30.92;31.64
3697;BME280;60662;48.810;8.872;2022-07-23T13:01:26;96762.94;;;31.02;31.29
3697;BME280;60662;48.810;8.872;2022-07-23T13:02:44;96755.97;;;31.07;31.76
3697;BME280;60662;48.810;8.872;2022-07-23T13:03:56;96760.25;;;31.58;30.96
3697;BME280;60662;48.810;8.872;2022-07-23T13:04:59;96756.91;;;31.56;30.50
3697;BME280;60662;48.810;8.872;2022-07-23T13:06:03;96755.56;;;30.89;31.65
3697;BME280;60662;48.810;8.872;2022-07-23T13:07:06;96757.66;;;30.87;32.01
3697;BME280;60662;48.810;8.872;2022-07-23T13:08:07;96769.00;;;31.32;30.63
3697;BME280;60662;48.810;8.872;2022-07-23T13:09:14;96764.94;;;30.93;30.54
3697;BME280;60662;48.810;8.872;2022-07-23T13:10:16;96758.94;;;31.19;30.38
3697;BME280;60662;48.810;8.872;2022-07-23T13:11:18;96752.44;;;31.35;30.30
3697;BME280;60662;48.810;8.872;2022-07-23T13:12:20;96767.66;;;31.50;29.67
3697;BME280;60662;48.810;8.872;2022-07-23T13:13:27;96756.50;;;31.24;29.63
3697;BME280;60662;48.810;8.872;2022-07-23T13:14:30;96757.22;;;31.40;29.58
3697;BME280;60662;48.810;8.872;2022-07-23T13:15:32;96763.34;;;31.55;29.24
3697;BME280;60662;48.810;8.872;2022-07-23T13:16:34;96765.00;;;31.91;29.19
3697;BME280;60662;48.810;8.872;2022-07-23T13:17:36;96762.84;;;32.22;29.32
3697;BME280;60662;48.810;8.872;2022-07-23T13:18:37;96759.72;;;32.25;29.22
3697;BME280;60662;48.810;8.872;2022-07-23T13:19:40;96760.91;;;32.09;29.25
3697;BME280;60662;48.810;8.872;2022-07-23T13:20:41;96765.06;;;32.05;29.87
3697;BME280;60662;48.810;8.872;2022-07-23T13:21:48;96758.19;;;31.61;30.14
3697;BME280;60662;48.810;8.872;2022-07-23T13:22:50;96760.03;;;31.25;30.59
3697;BME280;60662;48.810;8.872;2022-07-23T13:23:51;96754.78;;;31.80;29.96
3697;BME280;60662;48.810;8.872;2022-07-23T13:24:53;96761.19;;;32.28;29.55
3697;BME280;60662;48.810;8.872;2022-07-23T13:25:55;96768.16;;;32.08;29.50
3697;BME280;60662;48.810;8.872;2022-07-23T13:26:57;96767.94;;;32.59;29.34
3697;BME280;60662;48.810;8.872;2022-07-23T13:28:01;96769.75;;;32.38;29.34
3697;BME280;60662;48.810;8.872;2022-07-23T13:29:05;96765.41;;;32.44;29.30
3697;BME280;60662;48.810;8.872;2022-07-23T13:30:10;96763.84;;;32.14;29.75
3697;BME280;60662;48.810;8.872;2022-07-23T13:31:13;96758.53;;;32.34;29.40
3697;BME280;60662;48.810;8.872;2022-07-23T13:32:16;96765.84;;;32.61;28.91
3697;BME280;60662;48.810;8.872;2022-07-23T13:33:23;96765.66;;;32.62;28.90
3697;BME280;60662;48.810;8.872;2022-07-23T13:34:27;96758.56;;;32.68;28.62
3697;BME280;60662;48.810;8.872;2022-07-23T13:35:29;96761.06;;;32.69;29.27
3697;BME280;60662;48.810;8.872;2022-07-23T13:36:33;96767.16;;;32.92;28.85
3697;BME280;60662;48.810;8.872;2022-07-23T13:37:35;96765.22;;;32.72;28.75
3697;BME280;60662;48.810;8.872;2022-07-23T13:38:37;96757.97;;;32.72;28.83
3697;BME280;60662;48.810;8.872;2022-07-23T13:39:38;96765.88;;;32.81;28.42
3697;BME280;60662;48.810;8.872;2022-07-23T13:40:42;96755.78;;;32.21;29.55
3697;BME280;60662;48.810;8.872;2022-07-23T13:41:44;96761.00;;;31.81;30.30
3697;BME280;60662;48.810;8.872;2022-07-23T13:42:51;96760.00;;;31.53;30.83
3697;BME280;60662;48.810;8.872;2022-07-23T13:43:52;96754.44;;;31.26;30.76
3697;BME280;60662;48.810;8.872;2022-07-23T13:44:54;96757.66;;;31.72;30.75
3697;BME280;60662;48.810;8.872;2022-07-23T13:45:55;96753.34;;;32.53;29.92
3697;BME280;60662;48.810;8.872;2022-07-23T13:46:56;96749.16;;;32.30;30.08
3697;BME280;60662;48.810;8.872;2022-07-23T13:47:59;96748.81;;;31.91;30.40
3697;BME280;60662;48.810;8.872;2022-07-23T13:49:01;96754.19;;;32.53;29.50
3697;BME280;60662;48.810;8.872;2022-07-23T13:50:04;96756.69;;;32.62;29.08
3697;BME280;60662;48.810;8.872;2022-07-23T13:51:07;96746.19;;;32.12;29.35
3697;BME280;60662;48.810;8.872;2022-07-23T13:52:11;96748.88;;;31.63;30.19
3697;BME280;60662;48.810;8.872;2022-07-23T13:53:15;96743.34;;;31.43;29.76
3697;BME280;60662;48.810;8.872;2022-07-23T13:54:17;96750.91;;;31.61;30.26
3697;BME280;60662;48.810;8.872;2022-07-23T13:55:19;96753.84;;;32.08;29.60
3697;BME280;60662;48.810;8.872;2022-07-23T13:56:21;96755.50;;;32.09;29.50
3697;BME280;60662;48.810;8.872;2022-07-23T13:57:22;96749.72;;;31.70;28.79